• Join FlightAware (Why Join?)
  • Login
  • US Flag 
03:21AM EDT


 

Airport Tracker/Info


-or-


 

Live Flight TrackerFlight Track Log ✈ SKW2980 ✈ 08-May-2013 ✈ KSBA - KPHX

Flight Track Log - Related Links

Times and Time Zones

All times are in EDT time to prevent confusion due to time zone crossing. See the SKW2980 flight status page for this flight to view local times or setup timezone preferences in your user account.

Time Position Orientation Groundspeed Altitude Reporting Facility
EDT Latitude Longitude Course Direction KTS MPH feet Rate Location/Type
10:22PM 34.4258 -119.8694 226° Southwest 160 184 700  Level Los Angeles Center
10:23PM 34.3956 -119.9081 226° Southwest 204 235 3,100 2,280 Climbing Los Angeles Center
10:23PM 34.3761 -119.8886 140° Southeast 235 270 4,200 2,760 Climbing Los Angeles Center
10:25PM 34.3031 -119.8508 157° South 275 316 7,100 2,880 Climbing Los Angeles Center
10:26PM 34.2336 -119.8058 152° Southeast 283 326 10,200 2,760 Climbing Los Angeles Center
10:27PM 34.1592 -119.7564 151° Southeast 299 344 12,800 2,340 Climbing Los Angeles Center
10:28PM 34.1031 -119.6750 130° Southeast 335 386 15,100 1,500 Climbing Los Angeles Center
10:29PM 34.0739 -119.5661 108° East 344 396 16,000 420 Climbing Los Angeles Center
10:30PM 34.0400 -119.4442 109° East 381 438 16,000 540 Level Los Angeles Center
10:31PM 34.0006 -119.2925 107° East 396 456 17,200 1,500 Climbing Los Angeles Center
10:32PM 33.9667 -119.1661 108° East 398 458 19,200 1,920 Climbing Los Angeles Center
10:33PM 33.9325 -119.0417 108° East 393 452 21,200 1,920 Climbing Los Angeles Center
10:34PM 33.8983 -118.9203 109° East 385 443 23,200 1,740 Climbing Los Angeles Center
10:35PM 33.8733 -118.7994 104° East 374 430 24,900 1,380 Climbing Los Angeles Center
10:36PM 33.8633 -118.6706 95° East 386 444 26,100 1,020 Climbing Los Angeles Center
10:37PM 33.8522 -118.5364 96° East 398 458 27,100 1,020 Climbing Los Angeles Center
10:38PM 33.8411 -118.3972 95° East 410 472 28,200 900 Climbing Los Angeles Center
10:39PM 33.8281 -118.2500 96° East 425 489 29,000 720 Climbing Los Angeles Center
10:40PM 33.8144 -118.1042 96° East 432 497 29,800 780 Climbing Los Angeles Center
10:41PM 33.7986 -117.9258 96° East 445 512 30,600 780 Climbing Los Angeles Center
10:42PM 33.7844 -117.7781 97° East 448 516 31,500 840 Climbing Los Angeles Center
10:43PM 33.7717 -117.6303 96° East 447 514 32,400 720 Climbing Los Angeles Center
10:44PM 33.7575 -117.4828 97° East 446 513 33,000 240 Climbing Los Angeles Center
10:45PM 33.7428 -117.3336 97° East 451 519 33,000  Level Los Angeles Center
10:46PM 33.7289 -117.1831 96° East 456 525 33,000  Level Los Angeles Center
10:47PM 33.7147 -117.0308 96° East 461 531 33,000  Level Los Angeles Center
10:48PM 33.6989 -116.8806 97° East 459 528 33,000  Level Los Angeles Center
10:49PM 33.6853 -116.7203 96° East 461 531 33,000  Level Los Angeles Center
10:50PM 33.6678 -116.5381 97° East 458 527 33,000  Level Los Angeles Center
10:51PM 33.6511 -116.3875 98° East 455 524 33,000  Level Los Angeles Center
10:52PM 33.6358 -116.2383 97° East 451 519 33,000  Level Los Angeles Center
10:53PM 33.6258 -116.0878 95° East 450 518 33,000  Level Los Angeles Center
10:54PM 33.6233 -115.9389 91° East 446 513 33,000  Level Los Angeles Center
10:55PM 33.6203 -115.7911 91° East 443 510 33,000  Level Los Angeles Center
10:56PM 33.6172 -115.6425 91° East 444 511 33,000  Level Los Angeles Center
10:57PM 33.6133 -115.4939 92° East 445 512 33,000  Level Los Angeles Center
10:58PM 33.6081 -115.3164 92° East 445 512 33,000  Level Los Angeles Center
10:59PM 33.6053 -115.1675 91° East 447 514 33,000  Level Los Angeles Center
11:00PM 33.6003 -115.0206 92° East 444 511 33,000  Level Los Angeles Center
11:02PM 33.5969 -114.8736 92° East 443 510 33,000  Level Los Angeles Center
11:03PM 33.5894 -114.7283 94° East 438 504 33,000  Level Los Angeles Center
11:03PM 33.5706 -114.6242 102° East 438 504 33,000 -180 Level Albuquerque Center
11:04PM 33.5433 -114.4825 103° East 438 504 32,700 -1,680 Descending Albuquerque Center
11:05PM 33.5133 -114.3378 104° East 443 510 29,700 -3,000 Descending Albuquerque Center
11:06PM 33.4853 -114.1900 103° East 451 519 26,700 -2,340 Descending Albuquerque Center
11:07PM 33.4522 -114.0236 103° East 438 504 25,000 -1,320 Descending Albuquerque Center
11:08PM 33.4256 -113.8961 104° East 414 476 24,000 -1,020 Descending Albuquerque Center
11:09PM 33.3975 -113.7656 104° East 406 467 23,000 -1,020 Descending Albuquerque Center
11:10PM 33.3694 -113.6306 104° East 410 472 22,000 -1,020 Descending Albuquerque Center
11:11PM 33.3450 -113.4994 103° East 409 471 21,000 -1,080 Descending Albuquerque Center
11:12PM 33.3192 -113.3714 104° East 401 461 19,800 -1,320 Descending Albuquerque Center
11:14PM 33.2944 -113.2556 104° East 371 427 18,400 -1,380 Descending Albuquerque Center
11:15PM 33.2744 -113.1414 102° East 356 410 17,000 -1,380 Descending Albuquerque Center
11:16PM 33.2764 -113.0222 89° East 360 414 15,600 -1,020 Descending Albuquerque Center
11:17PM 33.2786 -112.9072 89° East 351 404 15,000 -300 Descending Albuquerque Center
11:18PM 33.2808 -112.7781 89° East 330 380 15,000 -60 Level Albuquerque Center
11:19PM 33.2831 -112.6661 89° East 333 383 14,900 -840 Descending Albuquerque Center
11:20PM 33.2872 -112.5611 87° East 333 383 13,400 -1,500 Descending Albuquerque Center
11:21PM 33.2889 -112.4572 89° East 322 371 11,900 -1,200 Descending Albuquerque Center
11:22PM 33.2919 -112.3567 88° East 312 359 11,000 -780 Descending Albuquerque Center
11:23PM 33.2989 -112.2583 85° East 304 350 10,400 -900 Descending Albuquerque Center
11:24PM 33.3078 -112.1422 85° East 298 343 9,200 -900 Descending Albuquerque Center
11:25PM 33.3228 -112.0506 79° East 293 337 8,600 -960 Descending Albuquerque Center
11:26PM 33.3419 -111.9692 74° East 266 306 7,300 -1,320 Descending Albuquerque Center
11:27PM 33.3450 -111.8914 87° East 244 281 6,000 -1,320 Descending Albuquerque Center
11:28PM 33.3661 -111.8261 69° East 238 274 4,700 -1,260 Descending Albuquerque Center
11:29PM 33.4217 -111.8522 339° North 222 255 3,500 -1,080 Descending Albuquerque Center
11:30PM 33.4419 -111.9067 294° West 205 236 2,600 -840 Descending Albuquerque Center
11:31PM 33.4419 -111.9553 270° West 168 193 1,900 -540 Descending Albuquerque Center
11:32PM 33.4422 -112.0119 270° West 160 184 1,500 -420 Descending Albuquerque Center